Time;durP1;ratioP1;P1;durP2;ratioP2;P2;SDS_P1;SDS_P2;PMS_P1;PMS_P2;Temp;Humidity;BMP_temperature;BMP_pressure;BME280_temperature;BME280_humidity;BME280_pressure;Samples;Min_cycle;Max_cycle;Signal;HPM_P1;HPM_P2
2021/10/26 00:01:59;;;;;;;20.60;11.63;;;;;;;;;;5039200;28;20053;-79
2021/10/26 00:04:25;;;;;;;18.95;10.90;;;;;;;;;;5036345;28;20107;-79
2021/10/26 00:06:54;;;;;;;19.58;11.15;;;;;;;;;;5038539;28;20053;-79
2021/10/26 00:09:22;;;;;;;16.45;10.32;;;;;;;;;;5039802;28;20509;-80
2021/10/26 00:11:49;;;;;;;18.55;10.52;;;;;;;;;;5039912;28;20073;-81
2021/10/26 00:14:16;;;;;;;18.70;10.02;;;;;;;;;;5038974;28;20451;-80
2021/10/26 00:16:43;;;;;;;27.00;14.82;;;;;;;;;;5040889;28;20049;-79
2021/10/26 00:19:10;;;;;;;29.27;15.68;;;;;;;;;;5043189;28;20140;-81
2021/10/26 00:21:38;;;;;;;31.13;16.02;;;;;;;;;;5042914;28;20050;-79
2021/10/26 00:24:07;;;;;;;32.70;16.98;;;;;;;;;;5042875;28;20059;-79
2021/10/26 00:26:34;;;;;;;29.52;16.85;;;;;;;;;;5041994;28;20050;-80
2021/10/26 00:29:01;;;;;;;34.97;16.63;;;;;;;;;;5045018;28;20045;-80
2021/10/26 00:31:27;;;;;;;28.83;15.60;;;;;;;;;;5044122;28;20045;-78
2021/10/26 00:33:54;;;;;;;32.88;17.10;;;;;;;;;;5043231;28;20482;-78
2021/10/26 00:36:22;;;;;;;29.83;15.93;;;;;;;;;;5044516;28;20134;-79
2021/10/26 00:38:49;;;;;;;33.58;18.08;;;;;;;;;;5044899;28;20056;-79
2021/10/26 00:41:18;;;;;;;27.10;15.48;;;;;;;;;;5045777;28;20111;-77
2021/10/26 00:43:44;;;;;;;30.60;15.68;;;;;;;;;;5043133;28;20512;-78
2021/10/26 00:46:11;;;;;;;29.90;14.80;;;;;;;;;;5041480;28;20072;-78
2021/10/26 00:48:38;;;;;;;30.85;15.88;;;;;;;;;;5041968;28;20103;-78
2021/10/26 00:51:08;;;;;;;31.40;16.98;;;;;;;;;;5043258;28;20492;-79
2021/10/26 00:53:35;;;;;;;28.50;16.58;;;;;;;;;;5045326;28;20041;-79
2021/10/26 00:56:02;;;;;;;31.65;15.80;;;;;;;;;;5045094;28;20075;-79
2021/10/26 00:58:31;;;;;;;29.52;15.82;;;;;;;;;;5045165;28;20057;-79
2021/10/26 01:00:58;;;;;;;28.55;15.70;;;;;;;;;;5044501;28;20049;-78
2021/10/26 01:03:25;;;;;;;28.55;15.30;;;;;;;;;;5042461;28;20456;-79
2021/10/26 01:05:52;;;;;;;30.70;15.40;;;;;;;;;;5043955;28;20046;-79
2021/10/26 01:08:19;;;;;;;31.20;15.38;;;;;;;;;;5044554;28;20056;-79
2021/10/26 01:10:48;;;;;;;32.78;15.68;;;;;;;;;;5044645;28;20045;-79
2021/10/26 01:13:15;;;;;;;25.85;14.13;;;;;;;;;;5044841;28;20525;-79
2021/10/26 01:15:44;;;;;;;26.02;14.23;;;;;;;;;;5045543;28;20046;-79
2021/10/26 01:18:11;;;;;;;27.65;14.95;;;;;;;;;;5045697;28;20050;-79
2021/10/26 01:20:40;;;;;;;22.15;13.13;;;;;;;;;;5044423;28;20141;-79
2021/10/26 01:23:06;;;;;;;25.25;13.13;;;;;;;;;;5043996;28;20049;-79
2021/10/26 01:25:36;;;;;;;22.45;12.82;;;;;;;;;;5041611;28;20103;-78
2021/10/26 01:28:03;;;;;;;22.50;12.43;;;;;;;;;;5041219;28;20042;-78
2021/10/26 01:30:33;;;;;;;18.77;10.65;;;;;;;;;;5043305;28;20124;-78
2021/10/26 01:33:01;;;;;;;19.88;9.10;;;;;;;;;;5043875;28;20049;-79
2021/10/26 01:35:28;;;;;;;16.20;8.60;;;;;;;;;;5042648;28;20068;-80
2021/10/26 01:37:56;;;;;;;14.15;9.65;;;;;;;;;;5043094;28;20053;-79
2021/10/26 01:40:23;;;;;;;14.07;8.10;;;;;;;;;;5042310;28;20053;-78
2021/10/26 01:42:51;;;;;;;15.55;9.07;;;;;;;;;;5041559;28;20076;-78
2021/10/26 01:45:19;;;;;;;15.93;9.32;;;;;;;;;;5037196;28;20068;-78
2021/10/26 01:47:46;;;;;;;14.98;8.88;;;;;;;;;;5037231;28;20053;-78
2021/10/26 01:50:16;;;;;;;13.98;8.05;;;;;;;;;;5037198;28;20060;-79
2021/10/26 01:52:43;;;;;;;15.15;9.85;;;;;;;;;;5038757;28;20080;-78
2021/10/26 01:55:15;;;;;;;15.52;8.95;;;;;;;;;;5041726;28;20049;-78
2021/10/26 01:57:43;;;;;;;14.88;9.30;;;;;;;;;;5041642;28;20393;-79
2021/10/26 02:00:11;;;;;;;15.10;8.25;;;;;;;;;;5041049;28;20053;-79
2021/10/26 02:02:38;;;;;;;16.50;9.52;;;;;;;;;;5041592;28;20057;-79
2021/10/26 02:05:07;;;;;;;19.88;9.63;;;;;;;;;;5044497;28;20557;-79
2021/10/26 02:07:34;;;;;;;19.15;10.45;;;;;;;;;;5044739;28;20180;-79
2021/10/26 02:10:01;;;;;;;17.95;10.32;;;;;;;;;;5044604;28;20045;-80
2021/10/26 02:12:29;;;;;;;18.60;9.98;;;;;;;;;;5045165;28;20056;-79
2021/10/26 02:14:56;;;;;;;13.90;7.88;;;;;;;;;;5046854;28;20050;-79
2021/10/26 02:17:23;;;;;;;15.05;8.90;;;;;;;;;;5043262;28;20260;-79
2021/10/26 02:19:49;;;;;;;13.65;8.05;;;;;;;;;;5046680;28;20049;-79
2021/10/26 02:22:17;;;;;;;15.52;7.97;;;;;;;;;;5047206;28;20045;-79
2021/10/26 02:24:44;;;;;;;15.13;8.05;;;;;;;;;;5046450;28;20041;-80
2021/10/26 02:27:12;;;;;;;13.80;7.68;;;;;;;;;;5047055;28;20053;-79
2021/10/26 02:29:40;;;;;;;15.73;9.13;;;;;;;;;;5045000;28;20045;-79
2021/10/26 02:32:07;;;;;;;20.13;11.00;;;;;;;;;;5043380;28;20629;-79
2021/10/26 02:34:35;;;;;;;14.25;8.23;;;;;;;;;;5038625;28;20103;-79
2021/10/26 02:37:01;;;;;;;12.15;7.60;;;;;;;;;;5037457;28;20053;-79
2021/10/26 02:39:29;;;;;;;14.27;7.25;;;;;;;;;;5041218;28;20049;-79
2021/10/26 02:41:56;;;;;;;11.93;6.97;;;;;;;;;;5037918;28;20516;-80
2021/10/26 02:44:23;;;;;;;13.38;7.85;;;;;;;;;;5035547;28;20057;-80
2021/10/26 02:46:51;;;;;;;16.27;7.60;;;;;;;;;;5040182;28;20632;-80
2021/10/26 02:49:19;;;;;;;17.38;8.02;;;;;;;;;;5040763;28;20041;-80
2021/10/26 02:51:46;;;;;;;13.57;7.63;;;;;;;;;;5041308;28;20057;-80
2021/10/26 02:54:13;;;;;;;15.57;8.13;;;;;;;;;;5040653;28;20045;-79
2021/10/26 02:56:42;;;;;;;15.52;8.93;;;;;;;;;;5039150;28;20543;-79
2021/10/26 02:59:08;;;;;;;14.77;7.95;;;;;;;;;;5039411;28;20072;-80
2021/10/26 03:01:35;;;;;;;13.25;8.02;;;;;;;;;;5039135;28;20057;-80
2021/10/26 03:04:04;;;;;;;15.57;7.90;;;;;;;;;;5039425;28;20046;-79
2021/10/26 03:06:31;;;;;;;15.38;8.95;;;;;;;;;;5038641;28;20071;-79
2021/10/26 03:08:57;;;;;;;16.85;8.80;;;;;;;;;;5037964;28;20053;-80
2021/10/26 03:11:24;;;;;;;14.85;9.10;;;;;;;;;;5038788;28;20051;-79
2021/10/26 03:13:51;;;;;;;18.08;9.07;;;;;;;;;;5039050;28;20076;-79
2021/10/26 03:16:18;;;;;;;16.90;9.27;;;;;;;;;;5038633;28;20049;-80
2021/10/26 03:18:45;;;;;;;20.95;11.00;;;;;;;;;;5039647;28;20053;-79
2021/10/26 03:21:13;;;;;;;23.20;11.80;;;;;;;;;;5039319;28;20504;-79
2021/10/26 03:23:40;;;;;;;27.65;13.43;;;;;;;;;;5043088;28;20095;-79
2021/10/26 03:26:07;;;;;;;22.70;11.65;;;;;;;;;;5043455;28;20107;-79
2021/10/26 03:28:34;;;;;;;23.65;10.95;;;;;;;;;;5038538;28;20045;-79
2021/10/26 03:31:04;;;;;;;21.92;11.55;;;;;;;;;;5037719;28;20073;-80
2021/10/26 03:33:31;;;;;;;23.95;10.88;;;;;;;;;;5037804;28;20049;-80
2021/10/26 03:35:59;;;;;;;24.55;11.05;;;;;;;;;;5070602;22;20041;-84
2021/10/26 03:38:27;;;;;;;26.80;11.70;;;;;;;;;;5064642;28;20561;-84
2021/10/26 03:40:54;;;;;;;26.25;12.43;;;;;;;;;;5059595;28;20045;-85
2021/10/26 03:43:21;;;;;;;21.40;10.70;;;;;;;;;;5060620;28;20110;-84
2021/10/26 03:45:48;;;;;;;14.98;8.73;;;;;;;;;;5067502;28;20053;-84
2021/10/26 03:48:14;;;;;;;21.35;10.80;;;;;;;;;;5062233;28;20053;-84
2021/10/26 03:50:41;;;;;;;21.52;10.55;;;;;;;;;;5058316;28;20052;-85
2021/10/26 03:53:08;;;;;;;23.70;11.60;;;;;;;;;;5060538;28;20049;-83
2021/10/26 03:55:36;;;;;;;19.80;10.30;;;;;;;;;;5061001;28;20064;-84
2021/10/26 03:58:08;;;;;;;23.17;10.30;;;;;;;;;;5064041;28;20522;-84
2021/10/26 04:00:38;;;;;;;24.45;11.85;;;;;;;;;;5072396;28;20048;-84
2021/10/26 04:03:28;;;;;;;23.38;10.45;;;;;;;;;;5067471;28;20055;-84
2021/10/26 04:06:03;;;;;;;17.63;9.95;;;;;;;;;;5063053;28;20045;-82
2021/10/26 04:08:37;;;;;;;19.48;9.63;;;;;;;;;;5062323;28;20049;-84
2021/10/26 04:11:13;;;;;;;17.08;9.57;;;;;;;;;;5060109;28;20095;-83
2021/10/26 04:13:40;;;;;;;27.42;10.23;;;;;;;;;;5061616;28;20057;-85
2021/10/26 04:16:07;;;;;;;24.65;10.75;;;;;;;;;;5061816;28;20531;-85
2021/10/26 04:18:33;;;;;;;20.42;9.90;;;;;;;;;;5060388;28;20045;-87
2021/10/26 04:21:00;;;;;;;18.40;8.77;;;;;;;;;;5060481;28;20045;-83
2021/10/26 04:23:28;;;;;;;21.05;9.98;;;;;;;;;;5059597;28;20107;-84
2021/10/26 04:25:55;;;;;;;20.40;8.93;;;;;;;;;;5060288;28;20049;-85
2021/10/26 04:28:25;;;;;;;22.52;9.80;;;;;;;;;;5059590;28;20056;-86
2021/10/26 04:30:53;;;;;;;22.00;10.52;;;;;;;;;;5062409;28;20051;-83
2021/10/26 04:33:20;;;;;;;24.13;9.70;;;;;;;;;;5060543;28;20045;-85
2021/10/26 04:35:47;;;;;;;22.63;10.98;;;;;;;;;;5061808;28;20076;-84
2021/10/26 04:38:16;;;;;;;18.52;9.23;;;;;;;;;;5060000;28;20075;-84
2021/10/26 04:40:45;;;;;;;22.02;9.65;;;;;;;;;;5060616;28;20059;-84
2021/10/26 04:43:13;;;;;;;18.27;8.10;;;;;;;;;;5061036;28;20108;-85
2021/10/26 04:45:41;;;;;;;15.13;7.50;;;;;;;;;;5060311;28;20049;-87
2021/10/26 04:48:14;;;;;;;15.05;7.38;;;;;;;;;;5060393;28;20041;-82
2021/10/26 04:50:41;;;;;;;15.23;7.63;;;;;;;;;;5061109;28;20049;-85
2021/10/26 04:53:08;;;;;;;14.02;6.68;;;;;;;;;;5060297;28;20071;-83
2021/10/26 04:55:35;;;;;;;15.10;7.30;;;;;;;;;;5058425;28;20459;-83
2021/10/26 04:58:06;;;;;;;15.32;7.50;;;;;;;;;;5059468;28;20460;-83
2021/10/26 05:00:33;;;;;;;15.35;7.95;;;;;;;;;;5057025;28;20052;-83
2021/10/26 05:03:01;;;;;;;14.85;6.60;;;;;;;;;;5056955;28;20068;-83
2021/10/26 05:05:28;;;;;;;14.88;7.05;;;;;;;;;;5060487;28;20465;-83
2021/10/26 05:07:55;;;;;;;13.35;7.25;;;;;;;;;;5061581;28;20102;-83
2021/10/26 05:10:22;;;;;;;15.10;7.88;;;;;;;;;;5061244;28;20159;-83
2021/10/26 05:12:50;;;;;;;14.77;7.70;;;;;;;;;;5062388;28;20049;-82
2021/10/26 05:15:17;;;;;;;17.35;7.50;;;;;;;;;;5061828;28;20087;-84
2021/10/26 05:17:44;;;;;;;15.98;6.95;;;;;;;;;;5061780;28;20049;-86
2021/10/26 05:20:15;;;;;;;13.95;7.80;;;;;;;;;;5063765;28;20138;-83
2021/10/26 05:22:42;;;;;;;20.83;7.47;;;;;;;;;;5060385;28;20513;-84
2021/10/26 05:25:09;;;;;;;15.88;7.78;;;;;;;;;;5060195;28;20122;-85
2021/10/26 05:27:38;;;;;;;24.83;9.30;;;;;;;;;;5062445;28;20044;-83
2021/10/26 05:30:06;;;;;;;16.25;8.38;;;;;;;;;;5060629;28;20053;-85
2021/10/26 05:32:34;;;;;;;18.55;8.73;;;;;;;;;;5060251;28;20053;-84
2021/10/26 05:35:01;;;;;;;29.20;9.40;;;;;;;;;;5059432;28;20045;-86
2021/10/26 05:37:29;;;;;;;19.52;10.82;;;;;;;;;;5059340;28;20041;-84
2021/10/26 05:39:56;;;;;;;22.48;10.52;;;;;;;;;;5060639;28;20102;-85
2021/10/26 05:42:22;;;;;;;23.15;10.18;;;;;;;;;;5068358;28;20045;-82
2021/10/26 05:44:49;;;;;;;26.23;11.27;;;;;;;;;;5078762;28;20060;-84
2021/10/26 05:47:16;;;;;;;25.85;10.75;;;;;;;;;;5070631;28;20049;-84
2021/10/26 05:49:49;;;;;;;24.10;11.88;;;;;;;;;;5064887;28;20045;-84
2021/10/26 05:52:16;;;;;;;28.00;13.68;;;;;;;;;;5061111;28;20076;-83
2021/10/26 05:54:44;;;;;;;30.95;13.43;;;;;;;;;;5061845;28;20045;-87
2021/10/26 05:57:13;;;;;;;31.63;13.25;;;;;;;;;;5060811;28;20118;-86
2021/10/26 05:59:39;;;;;;;31.13;13.80;;;;;;;;;;5060424;28;20102;-83
2021/10/26 06:02:06;;;;;;;30.75;13.07;;;;;;;;;;5062011;28;20045;-84
2021/10/26 06:04:33;;;;;;;35.95;15.57;;;;;;;;;;5064441;28;20053;-83
2021/10/26 06:07:00;;;;;;;32.90;13.75;;;;;;;;;;5059696;28;20159;-84
2021/10/26 06:09:29;;;;;;;33.80;14.88;;;;;;;;;;5060612;28;20045;-85
2021/10/26 06:11:59;;;;;;;36.28;14.88;;;;;;;;;;5061914;28;20044;-84
2021/10/26 06:14:29;;;;;;;33.20;13.73;;;;;;;;;;5058644;28;20099;-86
2021/10/26 06:16:59;;;;;;;30.40;14.03;;;;;;;;;;5059737;28;20045;-84
2021/10/26 06:19:26;;;;;;;29.48;15.52;;;;;;;;;;5060856;28;20049;-83
2021/10/26 06:21:53;;;;;;;32.90;14.75;;;;;;;;;;5060482;28;20068;-83
2021/10/26 06:24:20;;;;;;;31.38;15.48;;;;;;;;;;5063909;28;20049;-83
2021/10/26 06:26:47;;;;;;;32.65;14.23;;;;;;;;;;5060067;28;20052;-83
2021/10/26 06:29:15;;;;;;;38.53;17.85;;;;;;;;;;5059416;28;20083;-83
2021/10/26 06:31:44;;;;;;;38.67;17.50;;;;;;;;;;5061370;28;20041;-84
2021/10/26 06:34:10;;;;;;;39.88;17.20;;;;;;;;;;5059262;28;20099;-82
2021/10/26 06:36:37;;;;;;;38.72;17.25;;;;;;;;;;5061566;28;20492;-82
2021/10/26 06:39:07;;;;;;;36.97;17.33;;;;;;;;;;5060798;28;20049;-85
2021/10/26 06:41:34;;;;;;;37.17;15.57;;;;;;;;;;5067587;28;20079;-83
2021/10/26 06:44:05;;;;;;;33.58;14.88;;;;;;;;;;5075139;28;20052;-82
2021/10/26 06:46:33;;;;;;;34.47;16.13;;;;;;;;;;5063306;28;20114;-84
2021/10/26 06:49:00;;;;;;;31.52;15.73;;;;;;;;;;5059957;28;20060;-81
2021/10/26 06:51:27;;;;;;;36.00;16.33;;;;;;;;;;5060780;28;20056;-85
2021/10/26 06:53:54;;;;;;;35.55;15.52;;;;;;;;;;5060293;28;20053;-84
2021/10/26 06:56:22;;;;;;;40.53;16.55;;;;;;;;;;5058603;28;20053;-81
2021/10/26 06:58:48;;;;;;;34.40;15.55;;;;;;;;;;5059106;28;20299;-83
2021/10/26 07:01:15;;;;;;;35.58;16.98;;;;;;;;;;5058591;28;20487;-82
2021/10/26 07:03:43;;;;;;;35.83;17.50;;;;;;;;;;5062149;28;20098;-81
2021/10/26 07:06:10;;;;;;;35.45;17.33;;;;;;;;;;5061927;28;20041;-81
2021/10/26 07:08:38;;;;;;;37.30;17.92;;;;;;;;;;5060144;28;20049;-82
2021/10/26 07:11:08;;;;;;;36.65;16.88;;;;;;;;;;5062120;28;20046;-85
2021/10/26 07:13:38;;;;;;;41.35;18.83;;;;;;;;;;5046320;28;20144;-84
2021/10/26 07:16:06;;;;;;;42.17;19.73;;;;;;;;;;5046671;28;20045;-83
2021/10/26 07:18:33;;;;;;;40.05;18.98;;;;;;;;;;5057705;28;20191;-83
2021/10/26 07:21:02;;;;;;;35.92;17.30;;;;;;;;;;5054196;28;20057;-83
2021/10/26 07:23:29;;;;;;;46.95;19.58;;;;;;;;;;5053093;28;20095;-82
2021/10/26 07:25:56;;;;;;;47.90;20.00;;;;;;;;;;5050719;28;20555;-85
2021/10/26 07:28:23;;;;;;;40.55;18.38;;;;;;;;;;5052918;28;20048;-84
2021/10/26 07:30:50;;;;;;;35.80;16.77;;;;;;;;;;5060107;28;20037;-85
2021/10/26 07:33:21;;;;;;;36.15;16.75;;;;;;;;;;5056906;28;20037;-86
2021/10/26 07:35:52;;;;;;;29.92;14.30;;;;;;;;;;5057406;28;20121;-84
2021/10/26 07:38:28;;;;;;;;;;;;;;;;;;5057306;28;20073;-84
2021/10/26 07:40:56;;;;;;;39.33;17.25;;;;;;;;;;5057131;28;19936;-84
2021/10/26 07:43:23;;;;;;;38.38;18.67;;;;;;;;;;5057505;28;20148;-84
2021/10/26 07:45:51;;;;;;;37.13;17.90;;;;;;;;;;5054894;28;20045;-84
2021/10/26 07:48:18;;;;;;;34.65;18.00;;;;;;;;;;5058123;28;20029;-86
2021/10/26 07:50:45;;;;;;;33.38;16.75;;;;;;;;;;5055864;28;20071;-85
2021/10/26 07:53:12;;;;;;;60.80;26.65;;;;;;;;;;5051871;28;20037;-84
2021/10/26 07:55:41;;;;;;;32.83;15.77;;;;;;;;;;5048241;28;20144;-83
2021/10/26 07:58:08;;;;;;;35.08;16.60;;;;;;;;;;5045917;28;20078;-84
2021/10/26 08:00:34;;;;;;;26.25;13.98;;;;;;;;;;5046540;28;20059;-84
2021/10/26 08:03:01;;;;;;;24.95;12.30;;;;;;;;;;5046186;28;20052;-85
2021/10/26 08:05:28;;;;;;;25.30;11.80;;;;;;;;;;5050476;28;20041;-87
2021/10/26 08:07:55;;;;;;;32.25;14.02;;;;;;;;;;5044778;28;20384;-86
2021/10/26 08:10:23;;;;;;;27.30;14.20;;;;;;;;;;5049112;28;20053;-84
2021/10/26 08:12:51;;;;;;;26.17;13.27;;;;;;;;;;5051096;28;20049;-80
2021/10/26 08:15:18;;;;;;;26.27;11.82;;;;;;;;;;5063260;28;20063;-85
2021/10/26 08:17:46;;;;;;;24.95;12.05;;;;;;;;;;5062462;28;20537;-85
2021/10/26 08:20:14;;;;;;;23.00;11.95;;;;;;;;;;5057931;28;20049;-83
2021/10/26 08:22:41;;;;;;;25.25;11.95;;;;;;;;;;5057191;28;20049;-84
2021/10/26 08:25:13;;;;;;;24.85;12.05;;;;;;;;;;5053349;28;20140;-83
2021/10/26 08:27:40;;;;;;;25.23;12.15;;;;;;;;;;5057307;28;20055;-82
2021/10/26 08:30:15;;;;;;;22.58;12.82;;;;;;;;;;5053737;28;20052;-85
2021/10/26 08:32:55;;;;;;;20.45;10.48;;;;;;;;;;5052310;28;20775;-82
2021/10/26 08:35:24;;;;;;;22.45;10.70;;;;;;;;;;5050476;28;20037;-82
2021/10/26 08:37:53;;;;;;;20.50;10.45;;;;;;;;;;5054280;28;20045;-83
2021/10/26 08:40:20;;;;;;;21.58;10.93;;;;;;;;;;5057359;28;20046;-83
2021/10/26 08:42:48;;;;;;;21.30;11.18;;;;;;;;;;5058124;28;20071;-86
2021/10/26 08:45:20;;;;;;;22.48;10.68;;;;;;;;;;5061163;28;20033;-83
2021/10/26 08:47:47;;;;;;;21.48;11.90;;;;;;;;;;5060027;28;20076;-82
2021/10/26 08:50:15;;;;;;;24.85;11.30;;;;;;;;;;5054517;28;20115;-81
2021/10/26 08:52:43;;;;;;;23.10;10.55;;;;;;;;;;5052787;28;20044;-83
2021/10/26 08:55:10;;;;;;;20.80;10.32;;;;;;;;;;5051714;28;20084;-83
2021/10/26 08:57:37;;;;;;;20.75;9.82;;;;;;;;;;5051823;28;20048;-81
2021/10/26 09:02:52;;;;;;;20.92;11.10;;;;;;;;;;5028239;28;20041;-80
2021/10/26 09:05:21;;;;;;;21.13;11.27;;;;;;;;;;5048088;28;20080;-78
2021/10/26 09:08:02;;;;;;;19.88;10.50;;;;;;;;;;5043078;28;20045;-75
2021/10/26 09:10:32;;;;;;;21.92;10.85;;;;;;;;;;5041845;28;20052;-75
2021/10/26 09:18:37;;;;;;;20.80;10.93;;;;;;;;;;5040543;28;20044;-77
2021/10/26 09:21:04;;;;;;;25.65;12.73;;;;;;;;;;5041072;28;20067;-78
2021/10/26 09:23:31;;;;;;;23.15;11.20;;;;;;;;;;5040999;28;20049;-76
2021/10/26 09:26:00;;;;;;;22.10;11.60;;;;;;;;;;5038655;28;20044;-77
2021/10/26 09:28:28;;;;;;;26.30;12.57;;;;;;;;;;5040212;28;20381;-77
2021/10/26 09:31:04;;;;;;;23.20;11.18;;;;;;;;;;5040135;28;20040;-77
2021/10/26 09:33:34;;;;;;;26.05;13.13;;;;;;;;;;5042148;28;20111;-78
2021/10/26 09:36:39;;;;;;;26.30;12.20;;;;;;;;;;5042582;28;20106;-77
2021/10/26 09:39:23;;;;;;;25.83;12.23;;;;;;;;;;5041543;28;20060;-78
2021/10/26 09:42:11;;;;;;;25.20;13.48;;;;;;;;;;5040339;28;20583;-77
2021/10/26 09:44:47;;;;;;;31.50;13.25;;;;;;;;;;5046474;28;20064;-76
2021/10/26 09:47:19;;;;;;;26.88;13.98;;;;;;;;;;5051844;28;20052;-77
2021/10/26 09:49:52;;;;;;;26.80;12.90;;;;;;;;;;5046764;28;20474;-77
2021/10/26 09:52:23;;;;;;;25.20;12.68;;;;;;;;;;5046537;28;20660;-77
2021/10/26 09:55:14;;;;;;;24.75;13.82;;;;;;;;;;5047755;28;20045;-79
2021/10/26 09:57:44;;;;;;;26.38;13.13;;;;;;;;;;5041184;28;20045;-77
2021/10/26 10:00:12;;;;;;;23.17;14.05;;;;;;;;;;5042082;28;20044;-77
2021/10/26 10:02:40;;;;;;;29.00;14.48;;;;;;;;;;5060250;22;20053;-78
2021/10/26 10:05:09;;;;;;;23.77;13.70;;;;;;;;;;5043552;28;20043;-76
2021/10/26 10:07:37;;;;;;;25.58;13.65;;;;;;;;;;5047360;28;20498;-78
2021/10/26 10:10:09;;;;;;;25.95;13.75;;;;;;;;;;5048595;28;20064;-79
2021/10/26 10:12:37;;;;;;;26.00;14.00;;;;;;;;;;5047439;28;20072;-77
2021/10/26 10:15:06;;;;;;;25.55;14.02;;;;;;;;;;5026784;28;20053;-76
2021/10/26 10:17:35;;;;;;;38.85;14.13;;;;;;;;;;5027800;28;20152;-77
2021/10/26 10:20:04;;;;;;;28.42;12.55;;;;;;;;;;5027173;28;20049;-77
2021/10/26 10:22:31;;;;;;;27.67;14.45;;;;;;;;;;5028206;28;20041;-77
2021/10/26 10:25:00;;;;;;;27.42;13.68;;;;;;;;;;5030839;28;20042;-77
2021/10/26 10:27:30;;;;;;;31.60;13.98;;;;;;;;;;5031072;28;20443;-77
2021/10/26 10:29:58;;;;;;;25.60;14.07;;;;;;;;;;5031622;28;20443;-77
2021/10/26 10:32:28;;;;;;;29.35;14.05;;;;;;;;;;5030187;28;20127;-78
2021/10/26 10:34:57;;;;;;;25.42;13.80;;;;;;;;;;5030388;28;20064;-78
2021/10/26 10:37:25;;;;;;;22.88;12.98;;;;;;;;;;5028455;28;20108;-77
2021/10/26 10:39:56;;;;;;;27.33;14.05;;;;;;;;;;5029504;28;20100;-78
2021/10/26 10:42:26;;;;;;;25.92;13.50;;;;;;;;;;5027841;28;20179;-78
2021/10/26 10:44:56;;;;;;;24.15;12.85;;;;;;;;;;5027618;28;20496;-78
2021/10/26 10:47:40;;;;;;;24.35;13.00;;;;;;;;;;5027994;28;20049;-77
2021/10/26 10:50:42;;;;;;;35.40;15.88;;;;;;;;;;5027835;28;20053;-77
2021/10/26 10:53:11;;;;;;;24.92;13.70;;;;;;;;;;5029355;28;20092;-78
2021/10/26 10:55:40;;;;;;;26.50;14.20;;;;;;;;;;5028675;28;20054;-78
2021/10/26 10:58:38;;;;;;;27.45;14.32;;;;;;;;;;5030033;28;20111;-79
2021/10/26 11:01:26;;;;;;;23.05;12.27;;;;;;;;;;5031222;28;20077;-82
2021/10/26 11:03:54;;;;;;;26.73;13.98;;;;;;;;;;5029576;28;20052;-81
2021/10/26 11:06:51;;;;;;;27.42;13.38;;;;;;;;;;5034695;28;20037;-86
2021/10/26 11:09:53;;;;;;;24.83;12.73;;;;;;;;;;5032512;28;20522;-86
2021/10/26 11:12:30;;;;;;;25.73;13.82;;;;;;;;;;4953545;29;20047;-81
2021/10/26 11:14:58;;;;;;;28.17;13.95;;;;;;;;;;4949269;29;20131;-80
2021/10/26 11:18:02;;;;;;;25.63;12.43;;;;;;;;;;4999591;28;20053;-82
2021/10/26 11:20:56;;;;;;;24.00;13.00;;;;;;;;;;5037146;28;20515;-83
2021/10/26 11:23:41;;;;;;;25.30;13.18;;;;;;;;;;5039026;28;20542;-83
2021/10/26 11:26:11;;;;;;;23.95;12.48;;;;;;;;;;5052827;28;20061;-81
2021/10/26 11:28:54;;;;;;;25.73;12.10;;;;;;;;;;5051205;28;20042;-83
2021/10/26 11:31:25;;;;;;;23.02;12.55;;;;;;;;;;5050792;28;20037;-81
2021/10/26 11:34:15;;;;;;;24.83;11.90;;;;;;;;;;5048686;28;20056;-83
2021/10/26 11:36:41;;;;;;;20.77;12.27;;;;;;;;;;5035584;28;20067;-83
2021/10/26 11:39:13;;;;;;;25.00;13.50;;;;;;;;;;5034695;28;20063;-83
2021/10/26 11:41:41;;;;;;;30.50;15.38;;;;;;;;;;5033220;28;20041;-82
2021/10/26 11:44:09;;;;;;;27.52;13.77;;;;;;;;;;5031524;28;20076;-82
2021/10/26 11:46:38;;;;;;;23.98;13.07;;;;;;;;;;5032016;28;20107;-82
2021/10/26 11:49:09;;;;;;;25.17;13.20;;;;;;;;;;5031403;28;20065;-80
2021/10/26 11:51:38;;;;;;;24.83;13.10;;;;;;;;;;5031031;28;20061;-81
2021/10/26 11:54:07;;;;;;;21.60;12.25;;;;;;;;;;5031716;28;20080;-82
2021/10/26 11:56:36;;;;;;;23.92;12.43;;;;;;;;;;5032615;28;20061;-82
2021/10/26 11:59:10;;;;;;;23.23;11.48;;;;;;;;;;5033000;28;20041;-81
2021/10/26 12:01:39;;;;;;;27.08;12.57;;;;;;;;;;5031420;28;20049;-83
2021/10/26 12:04:14;;;;;;;24.00;12.13;;;;;;;;;;5030659;28;20056;-83
2021/10/26 12:06:41;;;;;;;21.45;11.43;;;;;;;;;;5029961;28;20093;-82
2021/10/26 12:09:12;;;;;;;18.63;10.85;;;;;;;;;;5030137;28;20060;-82
2021/10/26 12:11:41;;;;;;;22.50;13.27;;;;;;;;;;5031466;28;20057;-82
2021/10/26 12:14:29;;;;;;;19.58;10.65;;;;;;;;;;5033930;28;20075;-82
2021/10/26 12:17:29;;;;;;;15.40;9.55;;;;;;;;;;5027028;28;20672;-83
2021/10/26 12:20:02;;;;;;;17.88;10.63;;;;;;;;;;5035888;28;20053;-83
2021/10/26 12:22:32;;;;;;;17.42;8.88;;;;;;;;;;5033978;28;20057;-82
2021/10/26 12:25:12;;;;;;;19.60;10.17;;;;;;;;;;5035752;28;20069;-82
2021/10/26 12:27:44;;;;;;;19.08;9.02;;;;;;;;;;5035037;28;20792;-83
2021/10/26 12:30:32;;;;;;;16.00;8.57;;;;;;;;;;5036416;28;20045;-81
2021/10/26 12:33:01;;;;;;;19.00;9.52;;;;;;;;;;5036725;28;20041;-82
2021/10/26 12:35:32;;;;;;;15.48;8.32;;;;;;;;;;5043058;28;20060;-83
2021/10/26 12:38:29;;;;;;;15.23;8.80;;;;;;;;;;5040883;28;20068;-82
2021/10/26 12:40:58;;;;;;;17.77;8.07;;;;;;;;;;5040718;28;20453;-82
2021/10/26 12:43:27;;;;;;;17.05;8.55;;;;;;;;;;5033195;28;20103;-81
2021/10/26 12:45:56;;;;;;;20.20;9.68;;;;;;;;;;5037963;28;20092;-83
2021/10/26 12:48:32;;;;;;;18.45;8.57;;;;;;;;;;5037043;28;20119;-82
2021/10/26 12:51:02;;;;;;;13.63;7.38;;;;;;;;;;5034036;28;20048;-82
2021/10/26 12:53:33;;;;;;;13.70;8.75;;;;;;;;;;5034258;28;20052;-83
2021/10/26 12:56:01;;;;;;;15.18;7.97;;;;;;;;;;5034537;28;20091;-83
2021/10/26 12:58:37;;;;;;;18.38;8.13;;;;;;;;;;5033756;28;20297;-83
2021/10/26 13:01:14;;;;;;;14.23;7.35;;;;;;;;;;5034873;28;20088;-82
2021/10/26 13:03:42;;;;;;;14.60;7.43;;;;;;;;;;5039890;28;20045;-85
2021/10/26 13:06:13;;;;;;;16.88;8.05;;;;;;;;;;5041170;28;20041;-84
2021/10/26 13:08:52;;;;;;;15.98;8.35;;;;;;;;;;5043930;28;20552;-85
2021/10/26 13:11:24;;;;;;;18.52;8.88;;;;;;;;;;5043369;28;20045;-80
2021/10/26 13:14:18;;;;;;;15.50;9.23;;;;;;;;;;5045068;28;20143;-82
2021/10/26 13:16:46;;;;;;;17.83;8.40;;;;;;;;;;5036195;28;20281;-82
2021/10/26 13:19:27;;;;;;;14.43;7.97;;;;;;;;;;5036099;28;20041;-79
2021/10/26 13:22:07;;;;;;;;;;;;;;;;;;5031064;28;20464;-79
2021/10/26 13:24:34;;;;;;;15.73;7.75;;;;;;;;;;5030862;28;19929;-81
2021/10/26 13:27:01;;;;;;;14.88;7.70;;;;;;;;;;5030229;28;20153;-80
2021/10/26 13:29:37;;;;;;;12.50;7.40;;;;;;;;;;5032522;28;20045;-80
2021/10/26 13:32:05;;;;;;;14.23;7.57;;;;;;;;;;5032019;28;20038;-80
2021/10/26 13:34:32;;;;;;;15.02;8.55;;;;;;;;;;5032856;28;20452;-78
2021/10/26 13:37:03;;;;;;;15.35;8.32;;;;;;;;;;5032920;28;20488;-80
2021/10/26 13:39:32;;;;;;;22.15;12.80;;;;;;;;;;5033205;28;20049;-80
2021/10/26 13:41:59;;;;;;;43.88;18.38;;;;;;;;;;5035456;28;20038;-80
2021/10/26 13:44:28;;;;;;;15.45;7.93;;;;;;;;;;5042000;28;20057;-80
2021/10/26 13:46:55;;;;;;;13.40;7.77;;;;;;;;;;5043096;28;20049;-80
2021/10/26 13:49:22;;;;;;;16.38;7.72;;;;;;;;;;5043652;28;20258;-80
2021/10/26 13:51:50;;;;;;;11.77;7.50;;;;;;;;;;5036313;28;20049;-82
2021/10/26 13:54:20;;;;;;;11.70;6.28;;;;;;;;;;5037694;28;20105;-83
2021/10/26 13:56:47;;;;;;;14.05;8.00;;;;;;;;;;5034344;28;20113;-81
2021/10/26 13:59:16;;;;;;;13.25;7.22;;;;;;;;;;5034634;28;20050;-81
2021/10/26 14:01:44;;;;;;;11.60;7.03;;;;;;;;;;5033503;28;20527;-82
2021/10/26 14:04:12;;;;;;;13.90;6.90;;;;;;;;;;5028588;28;20054;-83
2021/10/26 14:06:39;;;;;;;14.20;7.75;;;;;;;;;;5032649;28;20045;-81
2021/10/26 14:09:07;;;;;;;19.48;7.22;;;;;;;;;;5034780;28;20045;-82
2021/10/26 14:11:37;;;;;;;11.63;5.57;;;;;;;;;;5033519;28;20080;-80
2021/10/26 14:14:06;;;;;;;10.48;6.28;;;;;;;;;;5034386;28;20049;-82
2021/10/26 14:16:34;;;;;;;10.70;5.40;;;;;;;;;;5035313;28;20045;-80
2021/10/26 14:19:01;;;;;;;9.82;5.43;;;;;;;;;;5036361;28;20057;-83
2021/10/26 14:21:33;;;;;;;10.30;5.28;;;;;;;;;;5039632;28;20056;-80
2021/10/26 14:24:00;;;;;;;10.52;5.80;;;;;;;;;;5043609;28;20492;-82
2021/10/26 14:26:35;;;;;;;9.35;4.60;;;;;;;;;;5049994;28;20044;-82
2021/10/26 14:29:02;;;;;;;13.80;5.63;;;;;;;;;;5045803;28;20049;-82
2021/10/26 14:31:29;;;;;;;10.93;5.22;;;;;;;;;;5044180;28;20413;-79
2021/10/26 14:33:56;;;;;;;9.07;5.22;;;;;;;;;;5040998;28;20041;-80
2021/10/26 14:36:27;;;;;;;8.93;4.70;;;;;;;;;;5037909;28;20397;-81
2021/10/26 14:38:58;;;;;;;12.13;5.25;;;;;;;;;;5037388;28;20049;-82
2021/10/26 14:41:50;;;;;;;13.18;5.55;;;;;;;;;;5037319;28;20045;-81
2021/10/26 14:52:50;;;;;;;8.35;4.97;;;;;;;;;;5035578;28;20080;-80
2021/10/26 14:55:21;;;;;;;7.70;4.10;;;;;;;;;;5029902;28;20046;-80
2021/10/26 14:57:49;;;;;;;10.65;4.60;;;;;;;;;;5034917;28;20071;-81